createdAt,value
2023-01-28T00:01:24.109Z,-0.50
2023-01-28T00:03:52.597Z,-0.50
2023-01-28T00:06:19.637Z,-0.40
2023-01-28T00:08:46.637Z,-0.50
2023-01-28T00:11:13.696Z,-0.60
2023-01-28T00:13:40.724Z,-0.50
2023-01-28T00:16:09.049Z,-0.60
2023-01-28T00:18:36.450Z,-0.60
2023-01-28T00:21:05.260Z,-0.60
2023-01-28T00:23:33.293Z,-0.70
2023-01-28T00:26:01.177Z,-0.70
2023-01-28T00:28:28.100Z,-0.60
2023-01-28T00:30:55.102Z,-0.60
2023-01-28T00:33:22.098Z,-0.60
2023-01-28T00:35:57.950Z,-0.70
2023-01-28T00:38:24.873Z,-0.70
2023-01-28T00:40:51.921Z,-0.50
2023-01-28T00:43:18.973Z,-0.40
2023-01-28T00:45:47.958Z,-0.50
2023-01-28T00:48:16.242Z,-0.60
2023-01-28T00:50:44.438Z,-0.70
2023-01-28T00:53:11.375Z,-0.70
2023-01-28T00:55:39.245Z,-0.70
2023-01-28T00:58:06.397Z,-0.60
2023-01-28T01:00:33.404Z,-0.50
2023-01-28T01:03:00.712Z,-0.50
2023-01-28T01:05:29.705Z,-0.50
2023-01-28T01:07:56.761Z,-0.50
2023-01-28T01:10:23.698Z,-0.50
2023-01-28T01:12:50.770Z,-0.50
2023-01-28T01:15:18.460Z,-0.60
2023-01-28T01:17:47.183Z,-0.60
2023-01-28T01:20:17.145Z,-0.80
2023-01-28T01:22:44.345Z,-0.80
2023-01-28T01:25:12.951Z,-0.90
2023-01-28T01:27:41.307Z,-0.70
2023-01-28T01:30:09.370Z,-0.60
2023-01-28T01:32:36.271Z,-0.60
2023-01-28T01:35:06.079Z,-0.70
2023-01-28T01:37:40.014Z,-0.70
2023-01-28T01:40:13.644Z,-0.70
2023-01-28T01:42:40.715Z,-0.80
2023-01-28T01:45:12.720Z,-0.80
2023-01-28T01:47:48.497Z,-0.80
2023-01-28T01:50:35.383Z,-0.90
2023-01-28T01:53:04.646Z,-0.90
2023-01-28T01:55:33.658Z,-0.90
2023-01-28T01:58:02.456Z,-0.90
2023-01-28T02:00:29.533Z,-0.90
2023-01-28T02:02:56.915Z,-0.90
2023-01-28T02:05:23.986Z,-0.90
2023-01-28T02:07:55.093Z,-0.80
2023-01-28T02:10:23.342Z,-0.80
2023-01-28T02:12:53.184Z,-0.80
2023-01-28T02:15:25.936Z,-0.80
2023-01-28T02:17:52.974Z,-0.70
2023-01-28T02:20:22.393Z,-0.70
2023-01-28T02:22:49.809Z,-0.80
2023-01-28T02:25:35.731Z,-0.80
2023-01-28T02:28:33.261Z,-0.90
2023-01-28T02:31:21.409Z,-1.10
2023-01-28T02:33:48.446Z,-1.00
2023-01-28T02:36:32.984Z,-0.90
2023-01-28T02:39:13.188Z,-0.70
2023-01-28T02:41:46.221Z,-0.70
2023-01-28T02:44:14.193Z,-0.50
2023-01-28T02:46:59.520Z,-0.50
2023-01-28T02:49:26.488Z,-0.70
2023-01-28T02:51:59.566Z,-0.70
2023-01-28T02:54:50.203Z,-0.70
2023-01-28T02:57:17.324Z,-0.80
2023-01-28T02:59:50.478Z,-0.90
2023-01-28T03:02:31.131Z,-0.90
2023-01-28T03:05:04.740Z,-1.00
2023-01-28T03:07:34.771Z,-0.90
2023-01-28T03:10:09.109Z,-0.90
2023-01-28T03:13:18.068Z,-0.80
2023-01-28T03:16:17.064Z,-0.80
2023-01-28T03:19:22.094Z,-0.80
2023-01-28T03:22:21.688Z,-0.70
2023-01-28T03:25:26.986Z,-0.80
2023-01-28T03:28:24.028Z,-0.80
2023-01-28T03:31:36.832Z,-1.00
2023-01-28T03:34:22.986Z,-1.10
2023-01-28T03:36:50.990Z,-1.10
2023-01-28T03:39:36.166Z,-1.10
2023-01-28T03:42:05.810Z,-1.20
2023-01-28T03:44:51.891Z,-1.10
2023-01-28T03:47:20.642Z,-1.20
2023-01-28T03:49:55.251Z,-1.20
2023-01-28T03:52:33.287Z,-1.00
2023-01-28T03:55:16.889Z,-1.00
2023-01-28T03:57:45.103Z,-1.00
2023-01-28T04:00:13.213Z,-1.10
2023-01-28T04:02:43.451Z,-1.00
2023-01-28T04:05:19.956Z,-1.00
2023-01-28T04:07:51.876Z,-1.10
2023-01-28T04:10:41.783Z,-1.00
2023-01-28T04:13:29.121Z,-1.00
2023-01-28T04:15:56.215Z,-1.00
2023-01-28T04:18:27.549Z,-1.00
2023-01-28T04:20:57.061Z,-1.00
2023-01-28T04:23:24.151Z,-0.90
2023-01-28T04:25:51.383Z,-0.80
2023-01-28T04:28:19.414Z,-0.70
2023-01-28T04:30:46.391Z,-0.60
2023-01-28T04:33:25.240Z,-0.60
2023-01-28T04:35:55.002Z,-0.50
2023-01-28T04:38:40.892Z,-0.50
2023-01-28T04:41:22.384Z,-0.50
2023-01-28T04:43:49.447Z,-0.60
2023-01-28T04:46:19.129Z,-0.70
2023-01-28T04:49:08.910Z,-0.70
2023-01-28T04:54:47.216Z,-1.00
2023-01-28T04:57:14.290Z,-1.00
2023-01-28T04:59:41.296Z,-0.90
2023-01-28T05:02:08.616Z,-0.70
2023-01-28T05:04:49.183Z,-0.70
2023-01-28T05:07:37.245Z,-0.60
2023-01-28T05:10:04.383Z,-0.80
2023-01-28T05:12:33.186Z,-0.80
2023-01-28T05:15:04.409Z,-1.00
2023-01-28T05:17:31.507Z,-1.10
2023-01-28T05:19:58.465Z,-1.10
2023-01-28T05:22:28.483Z,-1.10
2023-01-28T05:25:24.837Z,-1.00
2023-01-28T05:27:59.297Z,-1.00
2023-01-28T05:30:32.887Z,-1.00
2023-01-28T05:32:59.842Z,-1.10
2023-01-28T05:35:26.891Z,-1.00
2023-01-28T05:37:54.074Z,-1.00
2023-01-28T05:40:21.215Z,-1.10
2023-01-28T05:42:48.357Z,-1.10
2023-01-28T05:45:23.799Z,-1.00
2023-01-28T05:48:07.074Z,-1.00
2023-01-28T05:51:06.091Z,-0.80
2023-01-28T05:53:35.651Z,-1.00
2023-01-28T05:56:02.830Z,-1.10
2023-01-28T05:58:32.345Z,-1.10
2023-01-28T06:01:02.669Z,-1.00
2023-01-28T06:03:38.433Z,-0.90
2023-01-28T06:06:05.977Z,-0.80
2023-01-28T06:08:33.014Z,-0.70
2023-01-28T06:11:00.493Z,-0.70
2023-01-28T06:13:32.899Z,-0.90
2023-01-28T06:16:18.639Z,-0.90
2023-01-28T06:19:17.856Z,-0.90
2023-01-28T06:21:58.177Z,-0.90
2023-01-28T06:24:25.267Z,-0.80
2023-01-28T06:26:52.263Z,-0.80
2023-01-28T06:29:19.287Z,-0.90
2023-01-28T06:31:46.276Z,-0.90
2023-01-28T06:34:13.859Z,-0.90
2023-01-28T06:36:47.543Z,-1.00
2023-01-28T06:39:38.418Z,-1.10
2023-01-28T06:42:11.851Z,-1.20
2023-01-28T06:44:38.769Z,-1.10
2023-01-28T06:47:05.969Z,-0.90
2023-01-28T06:49:32.951Z,-0.90
2023-01-28T06:51:59.869Z,-0.80
2023-01-28T06:54:27.938Z,-1.10
2023-01-28T06:56:54.826Z,-1.10
2023-01-28T06:59:21.920Z,-1.00
2023-01-28T07:01:49.085Z,-1.30
2023-01-28T07:04:16.132Z,-1.30
2023-01-28T07:06:43.057Z,-1.30
2023-01-28T07:09:10.258Z,-1.20
2023-01-28T07:11:37.168Z,-1.10
2023-01-28T07:14:04.968Z,-1.00
2023-01-28T07:16:31.923Z,-0.90
2023-01-28T07:19:05.387Z,-0.90
2023-01-28T07:21:39.060Z,-1.00
2023-01-28T07:24:06.348Z,-0.90
2023-01-28T07:26:33.393Z,-1.00
2023-01-28T07:29:00.517Z,-1.20
2023-01-28T07:31:28.196Z,-1.30
2023-01-28T07:33:55.265Z,-1.30
2023-01-28T07:36:22.276Z,-1.30
2023-01-28T07:38:49.324Z,-1.30
2023-01-28T07:41:16.209Z,-1.30
2023-01-28T07:43:43.142Z,-1.40
2023-01-28T07:46:10.036Z,-1.40
2023-01-28T07:48:36.999Z,-1.40
2023-01-28T07:51:17.294Z,-1.20
2023-01-28T07:53:50.924Z,-1.30
2023-01-28T07:56:17.866Z,-1.40
2023-01-28T07:58:44.808Z,-1.40
2023-01-28T08:01:11.879Z,-1.40
2023-01-28T08:03:38.828Z,-1.40
2023-01-28T08:06:06.041Z,-1.30
2023-01-28T08:08:32.983Z,-1.30
2023-01-28T08:11:06.089Z,-1.10
2023-01-28T08:13:46.290Z,-1.10
2023-01-28T08:16:26.561Z,-1.10
2023-01-28T08:19:16.286Z,-1.20
2023-01-28T08:21:53.522Z,-1.10
2023-01-28T08:24:40.352Z,-1.10
2023-01-28T08:27:27.663Z,-1.00
2023-01-28T08:30:07.361Z,-1.20
2023-01-28T08:32:47.599Z,-1.20
2023-01-28T08:35:21.092Z,-1.30
2023-01-28T08:37:48.031Z,-1.40
2023-01-28T08:40:16.837Z,-1.30
2023-01-28T08:42:47.535Z,-1.10
2023-01-28T08:45:15.014Z,-1.10
2023-01-28T08:47:52.186Z,-1.10
2023-01-28T08:50:20.425Z,-1.20
2023-01-28T08:52:50.496Z,-1.20
2023-01-28T08:55:19.221Z,-1.20
2023-01-28T08:57:46.216Z,-1.00
2023-01-28T09:00:13.752Z,-1.10
2023-01-28T09:02:40.938Z,-1.00
2023-01-28T09:05:08.754Z,-0.90
2023-01-28T09:07:36.019Z,-0.90
2023-01-28T09:10:06.548Z,-0.80
2023-01-28T09:12:33.945Z,-0.70
2023-01-28T09:15:00.944Z,-0.80
2023-01-28T09:17:28.011Z,-1.00
2023-01-28T09:20:08.649Z,-0.90
2023-01-28T09:22:42.074Z,-0.90
2023-01-28T09:25:09.197Z,-0.90
2023-01-28T09:27:36.245Z,-0.90
2023-01-28T09:30:10.558Z,-0.70
2023-01-28T09:32:44.341Z,-0.60
2023-01-28T09:35:11.959Z,-0.50
2023-01-28T09:37:38.903Z,-0.30
2023-01-28T09:40:13.269Z,-0.20
2023-01-28T09:42:54.628Z,-0.10
2023-01-28T09:45:40.215Z,0.00
2023-01-28T09:48:10.395Z,0.00
2023-01-28T09:50:38.796Z,-0.10
2023-01-28T09:53:08.839Z,-0.10
2023-01-28T09:55:37.034Z,-0.10
2023-01-28T09:58:06.071Z,0.10
2023-01-28T10:00:37.713Z,0.20
2023-01-28T10:03:04.732Z,0.40
2023-01-28T10:05:31.719Z,0.10
2023-01-28T10:08:01.849Z,-0.20
2023-01-28T10:10:33.344Z,-0.50
2023-01-28T10:13:03.197Z,-0.60
2023-01-28T10:15:48.861Z,-0.70
2023-01-28T10:18:17.920Z,-0.80
2023-01-28T10:20:49.912Z,-0.90
2023-01-28T10:23:22.751Z,-0.70
2023-01-28T10:25:51.939Z,-0.80
2023-01-28T10:28:25.593Z,-0.90
2023-01-28T10:30:52.885Z,-0.80
2023-01-28T10:33:24.997Z,-0.60
2023-01-28T10:35:52.145Z,-0.40
2023-01-28T10:38:20.941Z,-0.40
2023-01-28T10:40:48.296Z,-0.40
2023-01-28T10:43:20.952Z,-0.40
2023-01-28T10:46:21.506Z,-0.60
2023-01-28T10:49:23.515Z,-0.50
2023-01-28T10:51:57.254Z,-0.40
2023-01-28T10:54:25.374Z,-0.30
2023-01-28T10:56:54.876Z,-0.40
2023-01-28T10:59:36.859Z,-0.50
2023-01-28T11:02:20.176Z,-0.70
2023-01-28T11:04:47.135Z,-0.70
2023-01-28T11:07:20.974Z,-0.80
2023-01-28T11:09:48.979Z,-0.80
2023-01-28T11:12:18.898Z,-0.80
2023-01-28T11:15:05.919Z,-0.90
2023-01-28T11:17:38.124Z,-0.80
2023-01-28T11:20:13.951Z,-0.80
2023-01-28T11:22:42.395Z,-0.80
2023-01-28T11:25:29.864Z,-0.80
2023-01-28T11:28:12.489Z,-0.70
2023-01-28T11:30:57.669Z,-0.40
2023-01-28T11:33:45.520Z,-0.10
2023-01-28T11:36:27.550Z,0.00
2023-01-28T11:39:02.404Z,-0.30
2023-01-28T11:41:30.928Z,-0.50
2023-01-28T11:43:58.606Z,-0.60
2023-01-28T11:46:44.096Z,-0.50
2023-01-28T11:49:34.285Z,-0.40
2023-01-28T11:52:18.973Z,-0.50
2023-01-28T11:54:46.197Z,-0.40
2023-01-28T11:57:31.830Z,-0.50
2023-01-28T12:00:26.528Z,-0.50
2023-01-28T12:03:06.653Z,-0.10
2023-01-28T12:05:56.503Z,-0.20
2023-01-28T12:08:43.739Z,-0.40
2023-01-28T12:12:03.008Z,-0.40
2023-01-28T12:14:49.683Z,-0.60
2023-01-28T12:17:39.504Z,-0.70
2023-01-28T12:20:45.649Z,-0.60
2023-01-28T12:23:36.339Z,-0.70
2023-01-28T12:26:25.605Z,-0.50
2023-01-28T12:29:25.618Z,-0.60
2023-01-28T12:32:17.500Z,-0.80
2023-01-28T12:35:04.818Z,-0.90
2023-01-28T12:38:03.524Z,-1.00
2023-01-28T12:41:19.727Z,-1.00
2023-01-28T12:44:08.619Z,-1.10
2023-01-28T12:46:52.557Z,-1.20
2023-01-28T12:49:48.563Z,-1.30
2023-01-28T12:52:44.654Z,-1.30
2023-01-28T12:55:26.683Z,-1.40
2023-01-28T12:58:14.576Z,-1.30
2023-01-28T13:01:01.670Z,-1.20
2023-01-28T13:03:48.616Z,-1.30
2023-01-28T13:06:39.184Z,-1.20
2023-01-28T13:09:29.558Z,-1.20
2023-01-28T13:12:12.515Z,-1.30
2023-01-28T13:15:00.565Z,-1.40
2023-01-28T13:17:42.148Z,-1.50
2023-01-28T13:20:37.581Z,-1.50
2023-01-28T13:23:42.836Z,-1.50
2023-01-28T13:26:36.585Z,-1.40
2023-01-28T13:29:32.793Z,-1.40
2023-01-28T13:32:32.686Z,-1.50
2023-01-28T13:36:00.646Z,-1.50
2023-01-28T13:38:47.721Z,-1.50
2023-01-28T13:41:27.574Z,-1.50
2023-01-28T13:44:24.807Z,-1.60
2023-01-28T13:47:04.658Z,-1.50
2023-01-28T13:49:47.098Z,-1.50
2023-01-28T13:52:38.657Z,-1.50
2023-01-28T13:55:43.478Z,-1.50
2023-01-28T13:58:42.626Z,-1.60
2023-01-28T14:01:44.669Z,-1.70
2023-01-28T14:04:30.779Z,-1.70
2023-01-28T14:07:18.553Z,-1.70
2023-01-28T14:10:18.025Z,-1.60
2023-01-28T14:13:13.634Z,-1.60
2023-01-28T14:15:58.837Z,-1.60
2023-01-28T14:18:47.639Z,-1.50
2023-01-28T14:21:28.806Z,-1.40
2023-01-28T14:24:21.737Z,-1.40
2023-01-28T14:27:18.635Z,-1.50
2023-01-28T14:30:23.728Z,-1.60
2023-01-28T14:33:03.749Z,-1.50
2023-01-28T14:35:51.658Z,-1.60
2023-01-28T14:38:38.744Z,-1.60
2023-01-28T14:41:28.878Z,-1.60
2023-01-28T14:44:08.649Z,-1.70
2023-01-28T14:47:09.753Z,-1.70
2023-01-28T14:49:58.655Z,-1.70
2023-01-28T14:53:03.827Z,-1.60
2023-01-28T14:55:57.685Z,-1.70
2023-01-28T14:58:50.784Z,-1.70
2023-01-28T15:01:32.630Z,-1.70
2023-01-28T15:04:42.677Z,-1.70
2023-01-28T15:07:29.809Z,-1.70
2023-01-28T15:10:10.690Z,-1.70
2023-01-28T15:13:00.797Z,-1.70
2023-01-28T15:15:43.712Z,-1.70
2023-01-28T15:18:19.641Z,-1.80
2023-01-28T15:20:47.677Z,-1.80
2023-01-28T15:25:44.440Z,-1.80
2023-01-28T15:28:28.977Z,-1.80
2023-01-28T15:31:09.864Z,-1.80
2023-01-28T15:33:43.452Z,-1.80
2023-01-28T15:36:10.424Z,-1.80
2023-01-28T15:38:37.431Z,-1.80
2023-01-28T15:41:06.195Z,-1.80
2023-01-28T15:43:35.077Z,-1.80
2023-01-28T15:46:02.626Z,-1.80
2023-01-28T15:48:31.581Z,-1.80
2023-01-28T15:51:00.160Z,-1.80
2023-01-28T15:53:29.615Z,-1.80
2023-01-28T15:56:04.794Z,-1.80
2023-01-28T15:58:34.045Z,-1.80
2023-01-28T16:01:12.233Z,-1.80
2023-01-28T16:03:40.283Z,-1.80
2023-01-28T16:06:16.994Z,-1.80
2023-01-28T16:08:47.249Z,-1.80
2023-01-28T16:11:21.219Z,-1.70
2023-01-28T16:13:48.310Z,-1.70
2023-01-28T16:16:15.667Z,-1.70
2023-01-28T16:18:47.545Z,-1.80
2023-01-28T16:21:20.792Z,-1.80
2023-01-28T16:23:59.688Z,-1.90
2023-01-28T16:26:28.052Z,-1.90
2023-01-28T16:28:55.172Z,-1.90
2023-01-28T16:31:22.626Z,-1.90
2023-01-28T16:33:49.795Z,-1.90
2023-01-28T16:36:19.456Z,-1.90
2023-01-28T16:38:46.634Z,-1.90
2023-01-28T16:41:14.435Z,-1.90
2023-01-28T16:43:43.510Z,-1.90
2023-01-28T16:46:11.687Z,-1.90
2023-01-28T16:48:38.765Z,-1.90
2023-01-28T16:51:11.856Z,-1.80
2023-01-28T16:53:58.782Z,-1.80
2023-01-28T16:56:47.243Z,-1.80
2023-01-28T16:59:20.523Z,-1.90
2023-01-28T17:01:47.606Z,-1.80
2023-01-28T17:04:14.824Z,-1.70
2023-01-28T17:06:43.512Z,-1.80
2023-01-28T17:09:11.807Z,-1.70
2023-01-28T17:11:41.145Z,-1.70
2023-01-28T17:14:09.076Z,-1.70
2023-01-28T17:16:36.462Z,-1.70
2023-01-28T17:19:03.491Z,-1.60
2023-01-28T17:21:30.456Z,-1.60
2023-01-28T17:23:59.086Z,-1.60
2023-01-28T17:26:26.440Z,-1.60
2023-01-28T17:28:53.732Z,-1.60
2023-01-28T17:31:21.915Z,-1.60
2023-01-28T17:33:53.067Z,-1.60
2023-01-28T17:36:20.042Z,-1.60
2023-01-28T17:38:46.958Z,-1.50
2023-01-28T17:41:14.416Z,-1.60
2023-01-28T17:43:41.388Z,-1.50
2023-01-28T17:46:12.318Z,-1.60
2023-01-28T17:48:39.923Z,-1.50
2023-01-28T17:51:07.035Z,-1.50
2023-01-28T17:53:33.990Z,-1.40
2023-01-28T17:56:00.984Z,-1.40
2023-01-28T17:58:27.912Z,-1.40
2023-01-28T18:00:55.063Z,-1.40
2023-01-28T18:03:22.112Z,-1.40
2023-01-28T18:06:07.490Z,-1.40
2023-01-28T18:08:35.263Z,-1.40
2023-01-28T18:11:06.814Z,-1.40
2023-01-28T18:13:35.271Z,-1.40
2023-01-28T18:16:02.388Z,-1.40
2023-01-28T18:18:29.436Z,-1.40
2023-01-28T18:20:57.143Z,-1.30
2023-01-28T18:23:36.844Z,-1.40
2023-01-28T18:26:10.476Z,-1.40
2023-01-28T18:28:37.403Z,-1.30
2023-01-28T18:31:05.330Z,-1.40
2023-01-28T18:33:32.294Z,-1.30
2023-01-28T18:35:59.268Z,-1.40
2023-01-28T18:38:26.413Z,-1.40
2023-01-28T18:40:56.757Z,-1.40
2023-01-28T18:43:24.386Z,-1.30
2023-01-28T18:45:52.257Z,-1.30
2023-01-28T18:48:19.464Z,-1.30
2023-01-28T18:50:50.552Z,-1.20
2023-01-28T18:53:17.676Z,-1.20
2023-01-28T18:55:44.854Z,-1.30
2023-01-28T18:58:12.095Z,-1.30
2023-01-28T19:00:52.960Z,-1.20
2023-01-28T19:03:26.652Z,-1.10
2023-01-28T19:05:53.568Z,-1.10
2023-01-28T19:08:20.491Z,-1.10
2023-01-28T19:10:57.380Z,-1.10
2023-01-28T19:13:24.543Z,-1.00
2023-01-28T19:15:51.621Z,-1.00
2023-01-28T19:18:18.533Z,-1.00
2023-01-28T19:20:46.068Z,-1.00
2023-01-28T19:23:13.305Z,-1.00
2023-01-28T19:25:43.271Z,-1.00
2023-01-28T19:28:10.409Z,-1.00
2023-01-28T19:30:37.671Z,-1.00
2023-01-28T19:33:06.697Z,-0.90
2023-01-28T19:35:34.267Z,-1.00
2023-01-28T19:38:02.284Z,-1.00
2023-01-28T19:40:29.515Z,-1.00
2023-01-28T19:42:56.475Z,-1.00
2023-01-28T19:45:23.451Z,-1.00
2023-01-28T19:48:04.008Z,-1.00
2023-01-28T19:50:37.599Z,-1.00
2023-01-28T19:53:04.771Z,-1.00
2023-01-28T19:55:31.671Z,-0.90
2023-01-28T19:57:58.614Z,-0.90
2023-01-28T20:00:32.061Z,-1.00
2023-01-28T20:03:07.994Z,-0.90
2023-01-28T20:05:35.370Z,-0.90
2023-01-28T20:08:02.516Z,-1.00
2023-01-28T20:10:32.643Z,-1.00
2023-01-28T20:12:59.560Z,-1.00
2023-01-28T20:15:26.606Z,-1.00
2023-01-28T20:18:01.422Z,-0.90
2023-01-28T20:20:34.598Z,-0.80
2023-01-28T20:23:05.775Z,-0.80
2023-01-28T20:25:33.389Z,-0.80
2023-01-28T20:28:00.418Z,-0.80
2023-01-28T20:30:27.882Z,-0.80
2023-01-28T20:32:54.806Z,-0.80
2023-01-28T20:35:21.809Z,-0.80
2023-01-28T20:37:48.737Z,-0.80
2023-01-28T20:40:15.769Z,-0.80
2023-01-28T20:42:42.658Z,-0.70
2023-01-28T20:45:09.644Z,-0.80
2023-01-28T20:47:36.623Z,-0.80
2023-01-28T20:50:04.089Z,-0.80
2023-01-28T20:52:31.103Z,-0.80
2023-01-28T20:54:57.999Z,-0.70
2023-01-28T20:57:24.931Z,-0.80
2023-01-28T20:59:51.913Z,-0.80
2023-01-28T21:02:18.928Z,-1.00
2023-01-28T21:04:45.849Z,-1.10
2023-01-28T21:07:13.062Z,-1.20
2023-01-28T21:09:40.064Z,-1.20
2023-01-28T21:12:07.382Z,-1.20
2023-01-28T21:14:34.306Z,-1.20
2023-01-28T21:17:02.347Z,-1.20
2023-01-28T21:19:33.451Z,-1.10
2023-01-28T21:22:07.961Z,-1.10
2023-01-28T21:24:35.024Z,-1.00
2023-01-28T21:27:02.354Z,-1.00
2023-01-28T21:29:29.409Z,-1.10
2023-01-28T21:31:56.378Z,-1.10
2023-01-28T21:34:24.883Z,-1.10
2023-01-28T21:36:51.867Z,-1.10
2023-01-28T21:39:18.781Z,-1.10
2023-01-28T21:41:45.718Z,-1.00
2023-01-28T21:44:12.620Z,-1.10
2023-01-28T21:46:39.709Z,-1.10
2023-01-28T21:49:06.648Z,-1.10
2023-01-28T21:51:38.136Z,-1.10
2023-01-28T21:54:06.818Z,-1.10
2023-01-28T21:56:40.149Z,-1.10
2023-01-28T21:59:29.322Z,-1.10
2023-01-28T22:02:03.859Z,-1.10
2023-01-28T22:04:32.687Z,-1.10
2023-01-28T22:07:00.140Z,-1.10
2023-01-28T22:09:27.859Z,-1.10
2023-01-28T22:11:55.221Z,-1.10
2023-01-28T22:14:22.379Z,-1.10
2023-01-28T22:16:49.368Z,-1.10
2023-01-28T22:19:16.682Z,-1.10
2023-01-28T22:21:44.661Z,-1.10
2023-01-28T22:24:13.234Z,-1.10
2023-01-28T22:26:41.031Z,-1.10
2023-01-28T22:29:08.408Z,-1.00
2023-01-28T22:31:35.548Z,-1.10
2023-01-28T22:34:02.566Z,-1.00
2023-01-28T22:36:29.893Z,-1.00
2023-01-28T22:38:56.946Z,-0.90
2023-01-28T22:41:24.050Z,-0.90
2023-01-28T22:43:51.628Z,-1.00
2023-01-28T22:46:20.091Z,-0.90
2023-01-28T22:48:47.473Z,-1.00
2023-01-28T22:51:21.998Z,-0.90
2023-01-28T22:53:49.984Z,-0.90
2023-01-28T22:56:18.248Z,-0.90
2023-01-28T22:58:45.350Z,-0.90
2023-01-28T23:01:15.699Z,-0.90
2023-01-28T23:03:47.240Z,-0.90
2023-01-28T23:06:16.431Z,-0.90
2023-01-28T23:08:43.994Z,-0.90
2023-01-28T23:11:15.469Z,-0.90
2023-01-28T23:14:02.330Z,-0.90
2023-01-28T23:16:48.859Z,-0.90
2023-01-28T23:19:34.796Z,-0.80
2023-01-28T23:22:21.102Z,-0.90
2023-01-28T23:25:01.168Z,-0.90
2023-01-28T23:27:48.279Z,-0.80
2023-01-28T23:30:25.444Z,-0.80
2023-01-28T23:32:54.584Z,-0.90
2023-01-28T23:35:21.634Z,-0.80
2023-01-28T23:37:48.562Z,-0.90
2023-01-28T23:40:16.103Z,-0.80
2023-01-28T23:42:47.822Z,-0.80
2023-01-28T23:45:14.915Z,-0.70
2023-01-28T23:47:41.897Z,-0.80
2023-01-28T23:50:09.494Z,-0.70
2023-01-28T23:52:36.628Z,-0.70
2023-01-28T23:55:03.800Z,-0.70
2023-01-28T23:57:30.963Z,-0.60
2023-01-28T23:59:57.882Z,-0.60
